Time;durP1;ratioP1;P1;durP2;ratioP2;P2;SDS_P1;SDS_P2;PMS_P1;PMS_P2;Temp;Humidity;BMP_temperature;BMP_pressure;BME280_temperature;BME280_humidity;BME280_pressure;Samples;Min_cycle;Max_cycle;Signal;HPM_P1;HPM_P2
2022/04/29 00:02:13;;;;;;;11.77;6.00;;;;;;;-145.69;100.00;72986.63;5072975;28;20662;-75
2022/04/29 00:04:40;;;;;;;12.43;6.63;;;;;;;-145.69;100.00;72992.59;5072356;28;20735;-76
2022/04/29 00:07:08;;;;;;;12.83;6.33;;;;;;;-145.69;100.00;73016.50;5072529;28;20712;-75
2022/04/29 00:09:35;;;;;;;13.33;6.30;;;;;;;-145.69;100.00;73032.44;5072685;28;20206;-75
2022/04/29 00:12:03;;;;;;;18.00;6.77;;;;;;;-145.69;100.00;73038.41;5073077;28;20203;-76
2022/04/29 00:14:30;;;;;;;8.80;5.73;;;;;;;-145.69;100.00;73056.31;5072904;28;20194;-76
2022/04/29 00:16:56;;;;;;;12.70;6.30;;;;;;;-145.69;100.00;73076.22;5072616;28;20202;-75
2022/04/29 00:19:24;;;;;;;13.50;6.87;;;;;;;-145.69;100.00;73072.25;5072323;28;20364;-76
2022/04/29 00:21:51;;;;;;;11.37;6.53;;;;;;;-145.69;100.00;73072.25;5072837;28;20206;-76
2022/04/29 00:24:17;;;;;;;11.63;6.60;;;;;;;-145.69;100.00;73076.22;5072622;28;20206;-75
2022/04/29 00:26:44;;;;;;;17.70;6.97;;;;;;;-145.69;100.00;73078.22;5072379;28;20365;-76
2022/04/29 00:29:11;;;;;;;12.60;7.03;;;;;;;-145.69;100.00;73082.19;5072821;28;20557;-76
2022/04/29 00:31:38;;;;;;;9.93;5.93;;;;;;;-145.69;100.00;73078.22;5072483;28;20206;-76
2022/04/29 00:34:05;;;;;;;13.93;6.47;;;;;;;-145.69;100.00;73054.31;5072028;28;20199;-76
2022/04/29 00:36:33;;;;;;;10.60;6.47;;;;;;;-145.69;100.00;73028.44;5072800;28;20209;-76
2022/04/29 00:39:00;;;;;;;11.13;6.10;;;;;;;-145.69;100.00;72992.59;5072837;28;20225;-76
2022/04/29 00:41:26;;;;;;;14.67;7.10;;;;;;;-145.69;99.39;72956.78;5073783;28;20230;-76
2022/04/29 00:44:01;;;;;;;12.73;6.60;;;;;;;-145.69;98.86;72954.78;5076694;28;20573;-76
2022/04/29 00:46:28;;;;;;;12.00;5.83;;;;;;;-145.69;99.34;72970.72;5076478;28;20657;-76
2022/04/29 00:48:55;;;;;;;13.03;6.17;;;;;;;-145.69;100.00;72982.66;5076209;28;20191;-76
2022/04/29 00:51:21;;;;;;;12.27;6.57;;;;;;;-145.69;100.00;72972.72;5076269;28;20194;-75
2022/04/29 00:53:50;;;;;;;18.43;6.93;;;;;;;-145.69;100.00;72968.72;5076225;28;20653;-76
2022/04/29 00:56:20;;;;;;;11.27;6.37;;;;;;;-145.69;100.00;72990.63;5076550;28;20207;-76
2022/04/29 00:58:56;;;;;;;10.67;5.60;;;;;;;-145.69;100.00;72994.59;5076298;28;20230;-76
2022/04/29 01:01:25;;;;;;;9.90;5.57;;;;;;;-145.69;100.00;73020.47;5074522;28;20241;-76
2022/04/29 01:03:54;;;;;;;11.30;6.10;;;;;;;-145.69;100.00;73016.50;5057599;28;20192;-76
2022/04/29 01:06:21;;;;;;;9.23;5.50;;;;;;;-145.69;100.00;73018.50;5056557;28;20253;-75
2022/04/29 01:08:49;;;;;;;12.77;6.37;;;;;;;-145.69;100.00;72992.59;5056094;28;20199;-76
2022/04/29 01:11:16;;;;;;;11.63;6.57;;;;;;;-145.69;100.00;72994.59;5055887;28;20203;-76
2022/04/29 01:13:43;;;;;;;11.27;6.27;;;;;;;-145.69;99.66;72954.78;5055754;28;20199;-75
2022/04/29 01:16:09;;;;;;;11.57;6.50;;;;;;;-145.69;99.46;72946.81;5055397;28;20269;-76
2022/04/29 01:18:36;;;;;;;14.80;6.23;;;;;;;-145.69;100.00;72954.78;5059927;28;20566;-76
2022/04/29 01:21:04;;;;;;;10.17;5.97;;;;;;;-145.69;100.00;72974.69;5075073;28;20317;-76
2022/04/29 01:23:34;;;;;;;10.57;6.00;;;;;;;-145.69;100.00;72972.72;5075794;28;20230;-76
2022/04/29 01:26:01;;;;;;;14.40;6.43;;;;;;;-145.69;100.00;72982.66;5075509;28;20198;-76
2022/04/29 01:28:30;;;;;;;11.52;6.93;;;;;;;-145.69;100.00;72990.63;5074794;28;20438;-76
2022/04/29 01:30:58;;;;;;;10.70;6.13;;;;;;;-145.69;100.00;72984.66;5074883;28;20203;-76
2022/04/29 01:33:26;;;;;;;12.90;6.27;;;;;;;-145.69;100.00;72996.59;5075831;28;20286;-76
2022/04/29 01:35:52;;;;;;;10.63;6.07;;;;;;;-145.69;100.00;72986.63;5075355;28;20681;-76
2022/04/29 01:38:19;;;;;;;11.07;5.70;;;;;;;-145.69;100.00;72998.59;5075669;28;20208;-76
2022/04/29 01:40:46;;;;;;;11.13;6.20;;;;;;;-145.69;100.00;73018.50;5075391;28;20226;-76
2022/04/29 01:43:13;;;;;;;13.47;5.57;;;;;;;-145.69;100.00;73030.44;5075528;28;20205;-76
2022/04/29 01:45:39;;;;;;;9.63;5.70;;;;;;;-145.69;100.00;73030.44;5075353;28;20650;-76
2022/04/29 01:48:06;;;;;;;9.63;5.83;;;;;;;-145.69;100.00;73028.44;5075432;28;20199;-76
2022/04/29 01:50:33;;;;;;;10.27;5.63;;;;;;;-145.69;100.00;73002.56;5075470;28;20199;-76
2022/04/29 01:52:59;;;;;;;10.53;6.10;;;;;;;-145.69;100.00;73002.56;5074380;28;20209;-76
2022/04/29 01:55:26;;;;;;;11.20;5.60;;;;;;;-145.69;100.00;72998.59;5075321;28;20612;-76
2022/04/29 01:57:56;;;;;;;11.00;5.93;;;;;;;-145.69;100.00;73010.53;5075169;28;20658;-76
2022/04/29 02:00:23;;;;;;;12.30;5.90;;;;;;;-145.69;100.00;73000.56;5074956;28;20268;-77
2022/04/29 02:02:50;;;;;;;11.87;5.90;;;;;;;-145.69;100.00;72982.66;5074935;28;20207;-76
2022/04/29 02:05:17;;;;;;;8.83;5.60;;;;;;;-145.69;100.00;72982.66;5075104;28;20679;-76
2022/04/29 02:07:44;;;;;;;10.63;5.70;;;;;;;-145.69;100.00;72996.59;5074985;28;20202;-76
2022/04/29 02:10:11;;;;;;;12.87;5.57;;;;;;;-145.69;100.00;72998.59;5075158;28;20210;-76
2022/04/29 02:12:37;;;;;;;11.43;5.67;;;;;;;-145.69;100.00;72984.66;5074969;28;20203;-76
2022/04/29 02:15:06;;;;;;;9.60;5.70;;;;;;;-145.69;100.00;72992.59;5074954;28;20206;-76
2022/04/29 02:17:33;;;;;;;9.90;5.50;;;;;;;-145.69;100.00;73010.53;5074736;28;20196;-77
2022/04/29 02:19:59;;;;;;;8.97;5.53;;;;;;;-145.69;100.00;73010.53;5074129;28;20230;-76
2022/04/29 02:22:26;;;;;;;11.33;5.73;;;;;;;-145.69;100.00;73016.50;5074705;28;20729;-76
2022/04/29 02:24:52;;;;;;;15.53;5.87;;;;;;;-145.69;100.00;73038.41;5074477;28;20539;-76
2022/04/29 02:27:19;;;;;;;10.63;5.80;;;;;;;-145.69;100.00;73066.25;5074802;28;20210;-75
2022/04/29 02:29:45;;;;;;;10.50;6.30;;;;;;;-145.69;100.00;73072.25;5074667;28;20206;-75
2022/04/29 02:32:13;;;;;;;14.33;5.67;;;;;;;-145.69;100.00;73098.13;5074581;28;20202;-76
2022/04/29 02:34:41;;;;;;;11.57;5.83;;;;;;;-145.69;100.00;73100.09;5074099;28;20672;-76
2022/04/29 02:37:08;;;;;;;10.27;5.83;;;;;;;-145.69;100.00;73104.09;5074376;28;20713;-76
2022/04/29 02:39:35;;;;;;;12.53;6.80;;;;;;;-145.69;100.00;73096.13;5074513;28;20203;-75
2022/04/29 02:42:03;;;;;;;11.10;5.93;;;;;;;-145.69;100.00;73106.09;5074304;28;20236;-75
2022/04/29 02:44:29;;;;;;;11.25;6.55;;;;;;;-145.69;100.00;73106.09;5074030;28;20438;-76
2022/04/29 02:47:08;;;;;;;14.17;6.57;;;;;;;-145.69;100.00;73122.00;5074385;28;20202;-76
2022/04/29 02:49:36;;;;;;;10.17;5.97;;;;;;;-145.69;100.00;73112.06;5074129;28;20305;-76
2022/04/29 02:52:03;;;;;;;10.47;6.10;;;;;;;-145.69;100.00;73118.03;5074262;28;20237;-76
2022/04/29 02:54:30;;;;;;;12.23;6.23;;;;;;;-145.69;100.00;73108.06;5074219;28;20531;-76
2022/04/29 02:56:56;;;;;;;11.20;5.87;;;;;;;-145.69;100.00;73131.97;5074147;28;20668;-76
2022/04/29 02:59:23;;;;;;;8.80;5.43;;;;;;;-145.69;100.00;73139.91;5066231;28;20207;-76
2022/04/29 03:01:49;;;;;;;11.40;5.90;;;;;;;-145.69;100.00;73157.84;5053828;28;20231;-76
2022/04/29 03:04:16;;;;;;;8.83;5.37;;;;;;;-145.69;100.00;73157.84;5063442;28;20649;-76
2022/04/29 03:06:44;;;;;;;12.63;6.83;;;;;;;-145.69;100.00;73133.94;5074019;28;20199;-76
2022/04/29 03:09:11;;;;;;;10.70;6.33;;;;;;;-145.69;100.00;73120.00;5073871;28;20207;-76
2022/04/29 03:11:38;;;;;;;12.17;5.83;;;;;;;-145.69;100.00;73112.06;5072784;28;20198;-76
2022/04/29 03:14:05;;;;;;;13.70;7.28;;;;;;;-145.69;100.00;73102.09;5073075;28;20464;-76
2022/04/29 03:16:32;;;;;;;15.60;6.30;;;;;;;-145.69;100.00;73078.22;5073493;28;20650;-75
2022/04/29 03:18:58;;;;;;;11.13;5.70;;;;;;;-145.69;100.00;73080.19;5073365;28;20253;-76
2022/04/29 03:21:26;;;;;;;10.83;5.80;;;;;;;-145.69;100.00;73078.22;5073614;28;20233;-76
2022/04/29 03:23:53;;;;;;;12.85;6.20;;;;;;;-145.69;100.00;73078.22;5073173;28;20921;-76
2022/04/29 03:26:20;;;;;;;13.07;5.93;;;;;;;-145.69;100.00;73100.09;5073541;28;20225;-76
2022/04/29 03:28:47;;;;;;;12.57;6.40;;;;;;;-145.69;100.00;73102.09;5073538;28;20293;-75
2022/04/29 03:31:13;;;;;;;11.23;6.10;;;;;;;-145.69;100.00;73074.22;5073331;28;20612;-76
2022/04/29 03:33:40;;;;;;;10.63;5.73;;;;;;;-145.69;100.00;73074.22;5073387;28;20289;-76
2022/04/29 03:36:07;;;;;;;10.60;5.37;;;;;;;-145.69;100.00;73086.19;5073512;28;20205;-76
2022/04/29 03:38:35;;;;;;;10.73;5.10;;;;;;;-145.69;100.00;73110.06;5073459;28;20230;-76
2022/04/29 03:41:04;;;;;;;15.53;6.53;;;;;;;-145.69;100.00;73133.94;5073353;28;20284;-76
2022/04/29 03:43:31;;;;;;;16.17;6.80;;;;;;;-145.69;100.00;73110.06;5073252;28;20546;-76
2022/04/29 03:45:57;;;;;;;12.77;6.40;;;;;;;-145.69;100.00;73114.03;5073114;28;20198;-76
2022/04/29 03:48:24;;;;;;;11.90;6.20;;;;;;;-145.69;100.00;73114.03;5073356;28;20202;-76
2022/04/29 03:50:51;;;;;;;11.80;6.30;;;;;;;-145.69;100.00;73122.00;5073010;28;20206;-76
2022/04/29 03:53:17;;;;;;;8.83;5.70;;;;;;;-145.69;100.00;73094.13;5073095;28;20654;-76
2022/04/29 03:55:44;;;;;;;9.53;5.80;;;;;;;-145.69;100.00;73108.06;5073089;28;20190;-76
2022/04/29 03:58:11;;;;;;;14.00;7.10;;;;;;;-145.69;100.00;73112.06;5073007;28;20210;-76
2022/04/29 04:00:38;;;;;;;11.73;6.80;;;;;;;-145.69;100.00;73096.13;5073309;28;20226;-76
2022/04/29 04:03:05;;;;;;;13.77;6.10;;;;;;;-145.69;100.00;73106.09;5072734;28;20199;-76
2022/04/29 04:05:32;;;;;;;11.10;6.40;;;;;;;-145.69;100.00;73126.00;5072832;28;20864;-76
2022/04/29 04:07:59;;;;;;;11.17;6.37;;;;;;;-145.69;100.00;73114.03;5073058;28;20202;-76
2022/04/29 04:10:26;;;;;;;9.60;6.03;;;;;;;-145.69;100.00;73126.00;5073106;28;20206;-76
2022/04/29 04:12:53;;;;;;;10.30;6.57;;;;;;;-145.69;100.00;73145.91;5072689;28;20202;-76
2022/04/29 04:15:23;;;;;;;16.30;7.33;;;;;;;-145.69;100.00;73147.88;5072733;28;20195;-75
2022/04/29 04:17:50;;;;;;;141.37;48.03;;;;;;;-145.69;100.00;73161.81;5072650;28;20272;-76
2022/04/29 04:20:17;;;;;;;212.73;66.03;;;;;;;-145.69;100.00;73169.78;5072743;28;20256;-75
2022/04/29 04:22:44;;;;;;;100.27;35.53;;;;;;;-145.69;100.00;73173.75;5072705;28;20649;-75
2022/04/29 04:25:13;;;;;;;75.27;27.13;;;;;;;-145.69;100.00;73179.75;5072663;28;20194;-75
2022/04/29 04:27:40;;;;;;;60.67;22.80;;;;;;;-145.69;100.00;73183.72;5072857;28;20206;-75
2022/04/29 04:30:08;;;;;;;57.13;22.50;;;;;;;-145.69;100.00;73173.75;5072862;28;20199;-75
2022/04/29 04:32:37;;;;;;;53.60;19.13;;;;;;;-145.69;100.00;73163.81;5072447;28;20240;-76
2022/04/29 04:35:05;;;;;;;24.90;11.13;;;;;;;-145.69;100.00;73153.84;5072726;28;20213;-75
2022/04/29 04:37:33;;;;;;;18.67;8.53;;;;;;;-145.69;100.00;73139.91;5071556;28;20205;-74
2022/04/29 04:40:00;;;;;;;19.20;8.43;;;;;;;-145.69;100.00;73141.91;5072202;28;20210;-75
2022/04/29 04:42:28;;;;;;;16.27;6.87;;;;;;;-145.69;100.00;73141.91;5072668;28;20226;-74
2022/04/29 04:44:55;;;;;;;14.67;6.70;;;;;;;-145.69;100.00;73129.97;5072428;28;20650;-75
2022/04/29 04:47:22;;;;;;;11.73;6.77;;;;;;;-145.69;100.00;73126.00;5072462;28;20234;-75
2022/04/29 04:49:50;;;;;;;10.53;6.00;;;;;;;-145.69;100.00;73126.00;5072454;28;20553;-74
2022/04/29 04:52:16;;;;;;;10.07;6.30;;;;;;;-145.69;100.00;73102.09;5072475;28;20218;-75
2022/04/29 04:54:43;;;;;;;10.00;5.23;;;;;;;-145.69;100.00;73084.19;5072856;28;20219;-75
2022/04/29 04:57:09;;;;;;;10.47;5.20;;;;;;;-145.69;100.00;73086.19;5072041;28;20199;-74
2022/04/29 04:59:36;;;;;;;14.50;6.23;;;;;;;-145.69;100.00;73072.25;5054663;28;20215;-74
2022/04/29 05:02:03;;;;;;;9.30;5.80;;;;;;;-145.69;100.00;73052.34;5052168;28;20234;-75
2022/04/29 05:04:29;;;;;;;10.17;5.37;;;;;;;-145.69;100.00;73052.34;5072161;28;20195;-74
2022/04/29 05:06:57;;;;;;;11.37;6.40;;;;;;;-145.69;100.00;73030.44;5071648;28;20206;-75
2022/04/29 05:09:23;;;;;;;12.43;5.60;;;;;;;-145.69;100.00;73028.44;5072318;28;20205;-74
2022/04/29 05:11:50;;;;;;;11.03;5.90;;;;;;;-145.69;100.00;73026.44;5071946;28;20665;-75
2022/04/29 05:14:17;;;;;;;8.20;4.63;;;;;;;-145.69;100.00;73012.53;5072149;28;20246;-75
2022/04/29 05:16:43;;;;;;;9.70;5.00;;;;;;;-145.69;100.00;73000.56;5072299;28;20199;-75
2022/04/29 05:19:10;;;;;;;10.17;5.30;;;;;;;-145.69;100.00;72990.63;5072008;28;20199;-74
2022/04/29 05:21:36;;;;;;;8.43;5.03;;;;;;;-145.69;100.00;72980.66;5072036;28;20309;-75
2022/04/29 05:24:05;;;;;;;7.10;4.13;;;;;;;-145.69;100.00;72966.72;5072292;28;20199;-75
2022/04/29 05:26:31;;;;;;;8.87;5.00;;;;;;;-145.69;100.00;72966.72;5072052;28;20218;-75
2022/04/29 05:28:58;;;;;;;6.90;4.20;;;;;;;-145.69;100.00;72958.78;5071604;28;20214;-74
2022/04/29 05:31:24;;;;;;;7.10;4.30;;;;;;;-145.69;100.00;72946.81;5075728;28;20206;-74
2022/04/29 05:33:51;;;;;;;9.10;4.07;;;;;;;-145.69;100.00;72936.88;5075273;28;20674;-75
2022/04/29 05:36:18;;;;;;;11.73;4.57;;;;;;;-145.69;100.00;72922.94;5075541;28;20210;-75
2022/04/29 05:44:14;;;;;;;6.50;3.80;;;;;;;-145.69;100.00;72879.16;5073995;28;20275;-74
2022/04/29 05:46:41;;;;;;;5.90;3.63;;;;;;;-145.69;100.00;72855.25;5055204;28;20670;-75
2022/04/29 05:49:07;;;;;;;10.13;5.00;;;;;;;-145.69;100.00;72847.28;5055290;28;20561;-74
2022/04/29 05:51:34;;;;;;;9.80;4.67;;;;;;;-145.69;100.00;72821.41;5055513;28;20203;-75
2022/04/29 05:54:00;;;;;;;5.10;3.53;;;;;;;-145.69;100.00;72813.47;5055460;28;20200;-75
2022/04/29 05:56:27;;;;;;;6.43;3.27;;;;;;;-145.69;100.00;72821.41;5055172;28;20298;-75
2022/04/29 05:58:55;;;;;;;6.70;3.43;;;;;;;-145.69;100.00;72805.50;5055122;28;20200;-75
2022/04/29 06:01:22;;;;;;;4.87;3.10;;;;;;;-145.69;100.00;72791.56;5055000;28;20230;-75
2022/04/29 06:03:49;;;;;;;8.33;3.87;;;;;;;-145.69;100.00;72767.69;5071108;28;20553;-75
2022/04/29 06:06:15;;;;;;;7.43;4.30;;;;;;;-145.69;100.00;72743.78;5075225;28;20199;-75
2022/04/29 06:08:42;;;;;;;10.13;4.43;;;;;;;-145.69;98.14;72727.88;5075149;28;20203;-74
2022/04/29 06:11:08;;;;;;;5.73;3.83;;;;;;;-145.69;96.20;72709.94;5075032;28;20581;-75
2022/04/29 06:13:37;;;;;;;9.30;4.67;;;;;;;-145.69;93.52;72690.03;5074787;28;20203;-75
2022/04/29 06:16:06;;;;;;;6.13;3.97;;;;;;;-145.69;95.91;72694.03;5075192;28;20199;-75
2022/04/29 06:18:33;;;;;;;5.47;3.43;;;;;;;-145.69;93.87;72652.22;5074824;28;20243;-75
2022/04/29 06:20:59;;;;;;;7.17;3.87;;;;;;;-145.69;94.25;72616.41;5074939;28;20230;-75
2022/04/29 06:23:26;;;;;;;5.27;3.80;;;;;;;-145.69;91.36;72616.41;5074695;28;20206;-74
2022/04/29 06:25:53;;;;;;;7.03;3.80;;;;;;;-145.69;91.46;72594.50;5074726;28;20210;-75
2022/04/29 06:28:20;;;;;;;5.60;3.73;;;;;;;-145.69;93.34;72592.50;5074933;28;20207;-75
2022/04/29 06:30:46;;;;;;;6.63;3.63;;;;;;;-145.69;89.74;72568.63;5074795;28;20199;-75
2022/04/29 06:33:14;;;;;;;6.87;3.57;;;;;;;-145.69;92.07;72570.63;5074480;28;20658;-74
2022/04/29 06:35:42;;;;;;;6.57;3.70;;;;;;;-145.69;92.78;72566.63;5074595;28;20206;-75
2022/04/29 06:38:09;;;;;;;11.03;4.97;;;;;;;-145.69;93.84;72554.69;5074467;28;20206;-75
2022/04/29 06:40:35;;;;;;;8.40;5.20;;;;;;;-145.69;93.75;72556.69;5074335;28;20199;-75
2022/04/29 06:43:03;;;;;;;12.27;5.33;;;;;;;-145.69;90.25;72532.78;5073765;28;20264;-75
2022/04/29 06:45:29;;;;;;;11.23;6.13;;;;;;;-145.69;92.48;72566.63;5073832;28;20913;-75
2022/04/29 06:47:56;;;;;;;8.43;5.20;;;;;;;-145.69;90.01;72544.75;5074237;28;20222;-75
2022/04/29 06:50:24;;;;;;;8.33;4.50;;;;;;;-145.69;85.24;72538.78;5074319;28;20203;-75
2022/04/29 06:52:51;;;;;;;7.70;3.97;;;;;;;-145.69;79.24;72548.72;5074353;28;20195;-75
2022/04/29 06:55:18;;;;;;;6.43;4.10;;;;;;;-145.69;82.13;72512.91;5073939;28;20551;-75
2022/04/29 06:57:46;;;;;;;5.40;3.50;;;;;;;-145.69;80.82;72481.03;5074211;28;20233;-75
2022/04/29 07:00:14;;;;;;;8.73;4.40;;;;;;;-145.69;82.82;72475.06;5074284;28;20203;-75
2022/04/29 07:02:41;;;;;;;6.80;4.10;;;;;;;-145.69;80.87;72465.13;5070334;28;20230;-75
2022/04/29 07:05:09;;;;;;;7.13;4.43;;;;;;;-145.69;81.20;72447.22;5053735;28;20762;-75
2022/04/29 07:07:37;;;;;;;7.70;4.30;;;;;;;-145.69;77.50;72377.53;5053816;28;20207;-75
2022/04/29 07:10:04;;;;;;;10.17;4.10;;;;;;;-145.69;80.51;72315.84;5053984;28;20196;-74
2022/04/29 07:12:33;;;;;;;13.33;3.63;;;;;;;-145.69;71.60;72216.34;5053499;28;20676;-75
2022/04/29 07:15:00;;;;;;;4.23;3.00;;;;;;;-145.69;70.28;72134.72;5053496;28;20593;-75
2022/04/29 07:17:27;;;;;;;4.87;3.03;;;;;;;-145.69;67.31;72073.03;5053706;28;20203;-75
2022/04/29 07:19:53;;;;;;;7.23;3.10;;;;;;;-145.69;58.86;72043.19;5053662;28;20204;-75
2022/04/29 07:22:20;;;;;;;10.53;4.70;;;;;;;-145.69;60.91;72019.31;5053446;28;20281;-74
2022/04/29 07:24:48;;;;;;;10.50;4.45;;;;;;;-145.69;59.21;71967.56;5053664;28;20363;-74
2022/04/29 07:27:15;;;;;;;6.93;3.57;;;;;;;-145.69;56.85;71957.59;5053419;28;20206;-75
2022/04/29 07:29:41;;;;;;;5.45;3.20;;;;;;;-145.69;53.67;71929.75;5053524;28;20210;-75
2022/04/29 07:32:09;;;;;;;7.20;3.25;;;;;;;-145.69;57.09;71951.63;5057696;28;20194;-75
2022/04/29 07:42:50;;;;;;;5.70;3.55;;;;;;;-145.69;52.04;71883.97;5073267;28;20260;-75
2022/04/29 07:45:17;;;;;;;5.75;2.78;;;;;;;-145.69;50.79;71880.00;5072400;28;20234;-75
2022/04/29 07:47:44;;;;;;;3.70;2.70;;;;;;;-145.69;53.22;71848.16;5072847;28;20280;-75
2022/04/29 07:50:11;;;;;;;9.73;3.58;;;;;;;-145.69;50.11;71804.38;5072632;28;20573;-74
2022/04/29 07:52:38;;;;;;;4.50;2.72;;;;;;;-145.69;50.59;71814.31;5073306;28;20206;-75
2022/04/29 07:55:09;;;;;;;6.13;3.08;;;;;;;-145.69;46.58;71820.28;5073015;28;20604;-76
2022/04/29 07:57:36;;;;;;;5.63;2.88;;;;;;;-145.69;46.16;71848.16;5072972;28;20654;-75
2022/04/29 08:00:04;;;;;;;7.95;2.88;;;;;;;-145.69;45.54;71860.09;5072881;28;20206;-76
2022/04/29 08:02:31;;;;;;;4.30;2.40;;;;;;;-145.69;46.01;71852.13;5072863;28;20280;-74
2022/04/29 08:04:57;;;;;;;3.42;2.45;;;;;;;-145.69;45.34;71780.50;5072556;28;20565;-75
2022/04/29 08:07:24;;;;;;;5.30;2.58;;;;;;;-145.69;44.16;71744.66;5072916;28;20217;-73
2022/04/29 08:09:50;;;;;;;5.75;2.40;;;;;;;-145.69;44.98;71722.78;5073174;28;20294;-73
2022/04/29 08:12:19;;;;;;;5.45;2.30;;;;;;;-145.69;44.00;71768.53;5072897;28;20209;-73
2022/04/29 08:14:46;;;;;;;4.68;2.35;;;;;;;-145.69;42.68;71772.53;5072963;28;20202;-74
2022/04/29 08:17:12;;;;;;;3.70;2.60;;;;;;;-145.69;44.96;71782.47;5072798;28;20194;-74
2022/04/29 08:19:39;;;;;;;4.40;2.60;;;;;;;-145.69;44.09;71788.44;5072540;28;20230;-75
2022/04/29 08:22:08;;;;;;;5.05;2.72;;;;;;;-145.69;42.51;71768.53;5072737;28;20226;-74
2022/04/29 08:24:35;;;;;;;6.57;2.65;;;;;;;-145.69;44.79;71784.47;5072710;28;20531;-74
2022/04/29 08:27:02;;;;;;;5.40;2.88;;;;;;;-145.69;43.93;71784.47;5072590;28;20211;-76
2022/04/29 08:29:29;;;;;;;3.17;2.08;;;;;;;-145.69;45.05;71812.31;5072878;28;20202;-74
2022/04/29 08:31:56;;;;;;;5.47;2.55;;;;;;;-145.69;42.12;71774.50;5072398;28;20668;-76
2022/04/29 08:34:22;;;;;;;6.00;2.50;;;;;;;-145.69;45.75;71762.56;5072595;28;20210;-75
2022/04/29 08:36:49;;;;;;;3.33;2.22;;;;;;;-145.69;41.11;71744.66;5072494;28;20210;-75
2022/04/29 08:39:15;;;;;;;4.30;2.40;;;;;;;-145.69;39.67;71716.81;5072733;28;20206;-75
2022/04/29 08:41:46;;;;;;;4.80;2.40;;;;;;;-145.69;40.09;71734.72;5072162;28;20653;-74
2022/04/29 08:44:12;;;;;;;3.38;2.30;;;;;;;-145.69;41.64;71700.88;5052811;28;20195;-74
2022/04/29 08:46:41;;;;;;;4.30;2.25;;;;;;;-145.69;38.32;71706.84;5052304;28;20435;-74
2022/04/29 08:49:08;;;;;;;4.22;2.28;;;;;;;-145.69;38.88;71679.00;5052530;28;20229;-75
2022/04/29 08:51:35;;;;;;;4.15;2.40;;;;;;;-145.69;39.31;71675.00;5052475;28;20207;-77
2022/04/29 08:54:02;;;;;;;2.90;2.00;;;;;;;-145.69;39.57;71651.13;5050326;28;20200;-74
2022/04/29 08:59:13;;;;;;;4.03;2.03;;;;;;;-145.69;39.69;71637.19;5052295;28;20199;-74
2022/04/29 09:01:44;;;;;;;5.45;2.30;;;;;;;-145.69;40.41;71645.16;5068048;28;20645;-77
2022/04/29 09:04:10;;;;;;;163.63;18.63;;;;;;;-145.69;41.90;71659.09;5076323;28;20226;-80
2022/04/29 09:06:47;;;;;;;6.15;2.67;;;;;;;-145.69;39.47;71647.16;5075925;28;20282;-75
2022/04/29 09:09:13;;;;;;;8.75;2.97;;;;;;;-145.69;39.26;71679.00;5075787;28;20530;-74
2022/04/29 09:11:40;;;;;;;7.00;2.85;;;;;;;-145.69;39.82;71621.28;5076013;28;20210;-77
2022/04/29 09:14:24;;;;;;;10.18;4.07;;;;;;;-145.69;39.06;71641.19;5075567;28;20666;-76
2022/04/29 09:16:54;;;;;;;18.25;4.13;;;;;;;-145.69;39.02;71619.28;5075642;28;20436;-75
2022/04/29 09:19:30;;;;;;;5.32;2.50;;;;;;;-145.69;39.03;71637.19;5075759;28;20283;-74
2022/04/29 09:22:05;;;;;;;4.22;2.50;;;;;;;-145.69;37.04;71680.97;5075840;28;20202;-77
2022/04/29 09:24:31;;;;;;;6.47;2.90;;;;;;;-145.69;38.44;71710.84;5075831;28;20701;-77
2022/04/29 09:27:00;;;;;;;5.65;2.92;;;;;;;-145.69;39.70;71720.78;5075550;28;20206;-77
2022/04/29 09:29:28;;;;;;;4.10;2.22;;;;;;;-145.69;38.63;71730.72;5075514;28;20677;-77
2022/04/29 09:31:58;;;;;;;3.70;2.20;;;;;;;-145.69;38.41;71764.56;5075463;28;20555;-76
2022/04/29 09:34:43;;;;;;;5.00;2.35;;;;;;;-145.69;39.19;71744.66;5075711;28;20207;-77
2022/04/29 09:37:14;;;;;;;6.90;2.42;;;;;;;-145.69;39.39;71736.72;5075383;28;20213;-76
2022/04/29 09:39:49;;;;;;;4.05;2.20;;;;;;;-145.69;40.16;71710.84;5075482;28;20202;-78
2022/04/29 09:42:16;;;;;;;8.90;2.38;;;;;;;-145.69;38.14;71708.84;5075313;28;20740;-76
2022/04/29 09:44:42;;;;;;;3.60;2.25;;;;;;;-145.69;40.68;71682.97;5075366;28;20610;-76
2022/04/29 09:47:15;;;;;;;3.95;2.40;;;;;;;-145.69;38.34;71645.16;5075092;28;20199;-78
2022/04/29 09:49:43;;;;;;;3.72;2.35;;;;;;;-145.69;39.52;71601.38;5075404;28;20203;-78
2022/04/29 09:52:09;;;;;;;5.53;2.33;;;;;;;-145.69;38.03;71607.34;5075281;28;20203;-77
2022/04/29 09:54:37;;;;;;;4.05;2.15;;;;;;;-145.69;36.37;71643.19;5075101;28;20194;-76
2022/04/29 09:57:07;;;;;;;4.47;2.28;;;;;;;-145.69;36.02;71575.50;5075256;28;20202;-77
2022/04/29 09:59:34;;;;;;;3.38;2.22;;;;;;;-145.69;37.02;71507.84;5075263;28;20195;-76
2022/04/29 10:02:01;;;;;;;4.90;2.28;;;;;;;-145.69;37.03;71485.97;5074867;28;20195;-78
2022/04/29 10:04:34;;;;;;;4.50;2.20;;;;;;;-145.69;36.53;71489.94;5074781;28;20195;-76
2022/04/29 10:07:02;;;;;;;5.72;2.63;;;;;;;-145.69;36.50;71487.97;5074869;28;20293;-76
2022/04/29 10:09:32;;;;;;;3.08;2.38;;;;;;;-145.69;37.41;71454.13;5074750;28;20202;-77
2022/04/29 10:12:01;;;;;;;5.65;2.90;;;;;;;-145.69;36.60;71515.81;5074748;28;20199;-78
2022/04/29 10:14:29;;;;;;;4.68;2.78;;;;;;;-145.69;36.06;71480.00;5074411;28;20264;-76
2022/04/29 10:22:38;;;;;;;4.78;2.85;;;;;;;-145.69;36.14;71438.22;5074676;28;20225;-76
2022/04/29 10:25:07;;;;;;;6.50;2.50;;;;;;;-145.69;36.39;71450.16;5074717;28;20268;-79
2022/04/29 10:27:35;;;;;;;4.75;2.80;;;;;;;-145.69;37.39;71414.34;5074671;28;20290;-76
2022/04/29 10:30:01;;;;;;;4.15;2.58;;;;;;;-145.69;39.54;71386.47;5074448;28;20596;-77
2022/04/29 10:32:28;;;;;;;5.50;2.50;;;;;;;-145.69;37.59;71368.56;5074525;28;20535;-76
2022/04/29 10:34:56;;;;;;;3.92;2.00;;;;;;;-145.69;36.98;71392.44;5074414;28;20197;-77
2022/04/29 10:37:32;;;;;;;4.47;2.30;;;;;;;-145.69;35.62;71352.66;5074287;28;20669;-76
2022/04/29 10:40:10;;;;;;;4.50;2.80;;;;;;;-145.69;36.01;71402.41;5074229;28;20727;-76
2022/04/29 10:43:08;;;;;;;5.13;2.65;;;;;;;-145.69;36.26;71402.41;5073134;28;20533;-76
2022/04/29 10:45:35;;;;;;;4.07;2.60;;;;;;;-145.69;35.80;71398.41;5073968;28;20188;-76
2022/04/29 10:48:30;;;;;;;3.67;2.33;;;;;;;-145.69;36.75;71372.53;5074192;28;20199;-76
2022/04/29 10:50:57;;;;;;;4.10;2.55;;;;;;;-145.69;37.58;71368.56;5074100;28;20195;-76
2022/04/29 10:53:25;;;;;;;8.88;3.50;;;;;;;-145.69;34.85;71346.69;5074209;28;20210;-77
2022/04/29 10:55:51;;;;;;;4.07;2.60;;;;;;;-145.69;36.14;71402.41;5070474;28;20195;-77
2022/04/29 10:58:23;;;;;;;6.07;2.20;;;;;;;-145.69;35.44;71298.94;5054167;28;20200;-76
2022/04/29 11:01:23;;;;;;;3.50;2.60;;;;;;;-145.69;34.81;71300.91;5054034;28;20215;-76
2022/04/29 11:03:50;;;;;;;3.63;2.33;;;;;;;-145.69;37.93;71275.03;5053942;28;20322;-76
2022/04/29 11:06:18;;;;;;;5.78;2.45;;;;;;;-145.69;35.00;71294.94;5068765;28;20191;-78
2022/04/29 11:08:45;;;;;;;4.20;2.38;;;;;;;-145.69;36.00;71306.88;5073730;28;20256;-78
2022/04/29 11:11:12;;;;;;;4.88;3.10;;;;;;;-145.69;35.60;71352.66;5073516;28;20295;-76
2022/04/29 11:13:44;;;;;;;4.05;2.70;;;;;;;-145.69;36.54;71294.94;5073488;28;20562;-76
2022/04/29 11:16:13;;;;;;;5.55;3.22;;;;;;;-145.69;35.53;71249.19;5073932;28;20285;-77
2022/04/29 11:18:42;;;;;;;11.70;2.70;;;;;;;-145.69;35.15;71199.44;5073381;28;20234;-78
2022/04/29 11:26:43;;;;;;;6.85;2.92;;;;;;;-145.69;37.04;71221.31;5072910;28;20209;-77
2022/04/29 11:29:10;;;;;;;6.60;3.38;;;;;;;-145.69;35.91;71161.63;5073387;28;20290;-78
2022/04/29 11:31:38;;;;;;;7.18;3.25;;;;;;;-145.69;36.27;71147.69;5073122;28;20195;-77
2022/04/29 11:34:08;;;;;;;5.90;3.35;;;;;;;-145.69;36.38;71207.38;5075708;28;20244;-77
2022/04/29 11:36:35;;;;;;;8.10;3.40;;;;;;;-145.69;37.16;71169.59;5073536;28;20430;-78
2022/04/29 11:39:09;;;;;;;17.42;4.65;;;;;;;-145.69;37.19;71227.28;5076402;28;20741;-78
2022/04/29 11:41:35;;;;;;;6.35;2.70;;;;;;;-145.69;36.39;71207.38;5073349;28;20203;-78